createdAt,value
2023-03-03T00:00:02.087Z,-3.51
2023-03-03T00:00:34.057Z,-3.40
2023-03-03T00:01:04.262Z,-.61
2023-03-03T00:01:35.188Z,-2.49
2023-03-03T00:02:07.759Z,-2.63
2023-03-03T00:02:39.096Z,-.61
2023-03-03T00:03:11.816Z,-3.19
2023-03-03T00:03:36.659Z,-3.66
2023-03-03T00:03:59.146Z,-3.19
2023-03-03T00:04:31.586Z,-.61
2023-03-03T00:05:04.442Z,-3.19
2023-03-03T00:05:35.099Z,-3.40
2023-03-03T00:06:07.661Z,-.61
2023-03-03T00:06:39.028Z,-3.07
2023-03-03T00:07:11.100Z,-2.49
2023-03-03T00:07:36.934Z,-2.89
2023-03-03T00:07:59.224Z,-3.40
2023-03-03T00:08:31.349Z,-3.30
2023-03-03T00:09:02.965Z,-3.40
2023-03-03T00:09:35.189Z,-2.89
2023-03-03T00:10:08.642Z,-2.75
2023-03-03T00:10:39.364Z,-.72
2023-03-03T00:11:11.342Z,-3.01
2023-03-03T00:11:36.750Z,-2.89
2023-03-03T00:11:59.532Z,-3.31
2023-03-03T00:12:31.165Z,-.72
2023-03-03T00:13:03.029Z,-.72
2023-03-03T00:13:35.251Z,-3.01
2023-03-03T00:14:07.685Z,-3.01
2023-03-03T00:14:39.183Z,-2.89
2023-03-03T00:15:11.870Z,-2.89
2023-03-03T00:15:36.878Z,-.72
2023-03-03T00:15:59.648Z,-3.31
2023-03-03T00:16:31.211Z,-3.53
2023-03-03T00:17:03.057Z,-.72
2023-03-03T00:17:35.458Z,-2.89
2023-03-03T00:18:07.705Z,-3.64
2023-03-03T00:18:39.183Z,-3.31
2023-03-03T00:19:11.378Z,-3.88
2023-03-03T00:19:36.952Z,-3.53
2023-03-03T00:19:59.179Z,-2.89
2023-03-03T00:20:31.632Z,-3.79
2023-03-03T00:21:02.996Z,-2.61
2023-03-03T00:21:35.019Z,-3.20
2023-03-03T00:22:07.859Z,-.72
2023-03-03T00:22:39.131Z,-2.61
2023-03-03T00:23:11.328Z,-.72
2023-03-03T00:23:36.766Z,-.72
2023-03-03T00:23:59.155Z,-2.61
2023-03-03T00:24:31.295Z,-.72
2023-03-03T00:25:04.654Z,-.72
2023-03-03T00:25:35.102Z,-.72
2023-03-03T00:26:07.667Z,-.72
2023-03-03T00:26:39.505Z,-.72
2023-03-03T00:27:11.205Z,-.72
2023-03-03T00:27:36.511Z,-.77
2023-03-03T00:27:59.129Z,-.77
2023-03-03T00:28:31.279Z,-.77
2023-03-03T00:29:02.923Z,-.77
2023-03-03T00:29:35.282Z,-.72
2023-03-03T00:30:08.714Z,-.72
2023-03-03T00:30:39.527Z,-.72
2023-03-03T00:31:11.172Z,-.72
2023-03-03T00:31:36.462Z,-.72
2023-03-03T00:31:59.095Z,-2.75
2023-03-03T00:32:31.404Z,-.72
2023-03-03T00:33:03.184Z,-.72
2023-03-03T00:33:35.030Z,-.72
2023-03-03T00:34:07.700Z,-2.61
2023-03-03T00:34:39.099Z,-.72
2023-03-03T00:35:11.925Z,-.72
2023-03-03T00:35:37.247Z,-2.75
2023-03-03T00:35:59.687Z,-.72
2023-03-03T00:36:31.356Z,-.72
2023-03-03T00:37:03.083Z,-2.75
2023-03-03T00:37:35.127Z,-.72
2023-03-03T00:38:07.857Z,-3.88
2023-03-03T00:38:39.109Z,-2.75
2023-03-03T00:39:11.413Z,-2.89
2023-03-03T00:39:36.422Z,-2.89
2023-03-03T00:39:59.468Z,-.72
2023-03-03T00:40:31.647Z,-.72
2023-03-03T00:41:03.079Z,-.72
2023-03-03T00:41:35.121Z,-.72
2023-03-03T00:42:07.549Z,-.72
2023-03-03T00:42:38.975Z,-.72
2023-03-03T00:43:11.285Z,-.72
2023-03-03T00:43:37.656Z,-.72
2023-03-03T00:43:59.225Z,-.72
2023-03-03T00:44:31.447Z,-2.75
2023-03-03T00:45:04.991Z,-2.89
2023-03-03T00:45:35.272Z,-.72
2023-03-03T00:46:08.129Z,-.72
2023-03-03T00:46:39.055Z,-.72
2023-03-03T00:47:11.901Z,-.72
2023-03-03T00:47:36.961Z,-.72
2023-03-03T00:47:59.242Z,-.72
2023-03-03T00:48:31.342Z,-.72
2023-03-03T00:49:03.066Z,-.72
2023-03-03T00:49:35.177Z,-.72
2023-03-03T00:50:08.223Z,-.72
2023-03-03T00:50:39.356Z,-.72
2023-03-03T00:51:11.501Z,-2.75
2023-03-03T00:51:36.597Z,-.72
2023-03-03T00:51:59.239Z,-3.31
2023-03-03T00:52:31.314Z,-2.61
2023-03-03T00:53:03.139Z,-.72
2023-03-03T00:53:35.487Z,-.72
2023-03-03T00:54:07.558Z,-.72
2023-03-03T00:54:39.172Z,-.72
2023-03-03T00:55:11.680Z,-.72
2023-03-03T00:55:36.709Z,-.72
2023-03-03T00:55:59.639Z,-3.79
2023-03-03T00:56:31.532Z,-3.53
2023-03-03T00:57:03.391Z,-2.61
2023-03-03T00:57:36.460Z,-4.20
2023-03-03T00:58:08.637Z,-.72
2023-03-03T00:58:39.088Z,-.72
2023-03-03T00:59:11.158Z,-.72
2023-03-03T00:59:36.577Z,-.72
2023-03-03T00:59:59.406Z,-.72
2023-03-03T01:00:34.077Z,-2.75
2023-03-03T01:01:04.054Z,-.77
2023-03-03T01:01:35.102Z,-.77
2023-03-03T01:02:07.753Z,-.77
2023-03-03T01:02:39.182Z,-.77
2023-03-03T01:03:11.153Z,-.77
2023-03-03T01:03:36.437Z,-.77
2023-03-03T01:03:59.433Z,-.77
2023-03-03T01:04:31.292Z,-.77
2023-03-03T01:05:04.504Z,-.77
2023-03-03T01:05:35.088Z,-.77
2023-03-03T01:06:07.538Z,-.77
2023-03-03T01:06:39.133Z,-2.94
2023-03-03T01:07:11.272Z,-.77
2023-03-03T01:07:36.724Z,-2.94
2023-03-03T01:07:59.666Z,-3.26
2023-03-03T01:08:31.323Z,-.77
2023-03-03T01:09:03.284Z,-2.67
2023-03-03T01:09:35.098Z,-3.48
2023-03-03T01:10:08.387Z,-2.94
2023-03-03T01:10:39.180Z,-.77
2023-03-03T01:11:11.486Z,-.77
2023-03-03T01:11:36.447Z,-3.07
2023-03-03T01:11:59.197Z,-2.81
2023-03-03T01:12:31.215Z,-.88
2023-03-03T01:13:03.070Z,-4.17
2023-03-03T01:13:37.554Z,-3.20
2023-03-03T01:14:07.811Z,-.88
2023-03-03T01:14:39.217Z,-3.39
2023-03-03T01:15:12.209Z,-2.80
2023-03-03T01:15:36.737Z,-.88
2023-03-03T01:16:00.094Z,-.88
2023-03-03T01:16:31.336Z,-1.00
2023-03-03T01:17:03.042Z,-1.00
2023-03-03T01:17:35.594Z,-1.00
2023-03-03T01:18:07.827Z,-3.21
2023-03-03T01:18:39.112Z,-2.93
2023-03-03T01:19:11.144Z,-2.93
2023-03-03T01:19:36.472Z,-1.00
2023-03-03T01:19:59.744Z,-1.00
2023-03-03T01:20:31.820Z,-2.93
2023-03-03T01:21:04.369Z,-1.00
2023-03-03T01:21:35.384Z,-3.53
2023-03-03T01:22:07.534Z,-3.21
2023-03-03T01:22:39.128Z,-1.00
2023-03-03T01:23:11.501Z,-3.64
2023-03-03T01:23:36.509Z,-1.00
2023-03-03T01:23:59.116Z,-3.34
2023-03-03T01:24:31.413Z,-1.11
2023-03-03T01:25:04.608Z,-1.11
2023-03-03T01:25:35.203Z,-1.11
2023-03-03T01:26:07.618Z,-1.11
2023-03-03T01:26:39.491Z,-1.11
2023-03-03T01:27:11.269Z,-1.11
2023-03-03T01:27:36.673Z,-1.11
2023-03-03T01:27:59.247Z,-1.11
2023-03-03T01:28:31.289Z,-1.11
2023-03-03T01:29:03.306Z,-1.11
2023-03-03T01:29:35.515Z,-1.11
2023-03-03T01:30:08.699Z,-1.11
2023-03-03T01:30:39.272Z,-1.11
2023-03-03T01:31:11.194Z,-1.11
2023-03-03T01:31:36.693Z,-3.46
2023-03-03T01:31:59.777Z,-1.11
2023-03-03T01:32:31.304Z,-3.77
2023-03-03T01:33:03.556Z,-3.65
2023-03-03T01:33:35.145Z,-3.77
2023-03-03T01:34:07.827Z,-3.88
2023-03-03T01:34:39.141Z,-4.75
2023-03-03T01:35:11.996Z,-3.99
2023-03-03T01:35:36.753Z,-1.11
2023-03-03T01:35:59.850Z,-3.90
2023-03-03T01:36:32.157Z,-1.22
2023-03-03T01:37:03.094Z,-3.90
2023-03-03T01:37:35.330Z,-3.46
2023-03-03T01:38:08.292Z,-1.22
2023-03-03T01:38:39.165Z,-4.38
2023-03-03T01:39:11.304Z,-4.48
2023-03-03T01:39:36.627Z,-3.59
2023-03-03T01:39:59.350Z,-3.46
2023-03-03T01:40:32.127Z,-1.22
2023-03-03T01:41:03.158Z,-3.59
2023-03-03T01:41:35.199Z,-3.46
2023-03-03T01:42:08.282Z,-3.18
2023-03-03T01:42:39.059Z,-3.33
2023-03-03T01:43:11.387Z,-3.46
2023-03-03T01:43:36.531Z,-1.22
2023-03-03T01:43:59.770Z,-3.33
2023-03-03T01:44:32.146Z,-3.90
2023-03-03T01:45:05.173Z,-3.46
2023-03-03T01:45:35.221Z,-3.18
2023-03-03T01:46:07.779Z,-1.22
2023-03-03T01:46:39.138Z,-3.90
2023-03-03T01:47:11.806Z,-4.12
2023-03-03T01:47:36.491Z,-3.59
2023-03-03T01:47:59.358Z,-4.48
2023-03-03T01:48:31.285Z,-4.07
2023-03-03T01:49:03.275Z,-3.24
2023-03-03T01:49:35.249Z,-3.38
2023-03-03T01:50:08.204Z,-3.52
2023-03-03T01:50:39.187Z,-5.11
2023-03-03T01:51:11.228Z,-4.86
2023-03-03T01:51:36.642Z,-4.63
2023-03-03T01:51:59.235Z,-5.03
2023-03-03T01:52:31.407Z,-4.28
2023-03-03T01:53:03.116Z,-3.65
2023-03-03T01:53:35.576Z,-4.44
2023-03-03T01:54:07.756Z,-4.07
2023-03-03T01:54:39.106Z,-3.24
2023-03-03T01:55:11.666Z,-4.18
2023-03-03T01:55:36.886Z,-3.38
2023-03-03T01:55:59.661Z,-3.84
2023-03-03T01:56:31.403Z,-3.65
2023-03-03T01:57:03.117Z,-3.38
2023-03-03T01:57:35.477Z,-4.86
2023-03-03T01:58:07.934Z,-4.54
2023-03-03T01:58:39.107Z,-4.86
2023-03-03T01:59:11.196Z,-5.11
2023-03-03T01:59:36.680Z,-5.56
2023-03-03T01:59:59.189Z,-4.94
2023-03-03T02:00:32.298Z,-4.76
2023-03-03T02:01:04.175Z,-4.20
2023-03-03T02:01:35.220Z,-5.36
2023-03-03T02:02:07.743Z,-3.37
2023-03-03T02:02:39.113Z,-3.37
2023-03-03T02:03:11.456Z,-3.37
2023-03-03T02:03:36.567Z,-3.37
2023-03-03T02:03:59.194Z,-5.00
2023-03-03T02:04:31.235Z,-3.91
2023-03-03T02:05:04.769Z,-3.50
2023-03-03T02:05:35.590Z,-3.65
2023-03-03T02:06:07.897Z,-3.50
2023-03-03T02:06:39.163Z,-4.81
2023-03-03T02:07:11.271Z,-4.22
2023-03-03T02:07:36.491Z,-1.50
2023-03-03T02:07:59.265Z,-3.91
2023-03-03T02:08:31.340Z,-3.65
2023-03-03T02:09:03.284Z,-3.78
2023-03-03T02:09:35.234Z,-5.00
2023-03-03T02:10:08.290Z,-4.55
2023-03-03T02:10:39.059Z,-4.22
2023-03-03T02:11:11.341Z,-1.50
2023-03-03T02:11:36.564Z,-1.50
2023-03-03T02:11:59.161Z,-3.50
2023-03-03T02:12:31.320Z,-1.50
2023-03-03T02:13:03.176Z,-1.50
2023-03-03T02:13:35.822Z,-3.78
2023-03-03T02:14:07.550Z,-1.61
2023-03-03T02:14:40.745Z,-4.84
2023-03-03T02:15:12.371Z,-4.35
2023-03-03T02:15:36.515Z,-4.35
2023-03-03T02:15:59.575Z,-4.04
2023-03-03T02:16:31.580Z,-4.23
2023-03-03T02:17:03.173Z,-4.35
2023-03-03T02:17:35.237Z,-4.23
2023-03-03T02:18:07.671Z,-1.61
2023-03-03T02:18:39.089Z,-1.61
2023-03-03T02:19:11.187Z,-1.61
2023-03-03T02:19:36.517Z,-3.63
2023-03-03T02:19:59.229Z,-1.61
2023-03-03T02:20:31.641Z,-1.61
2023-03-03T02:21:03.128Z,-1.61
2023-03-03T02:21:35.175Z,-1.61
2023-03-03T02:22:07.706Z,-1.61
2023-03-03T02:22:39.150Z,-4.35
2023-03-03T02:23:12.924Z,-4.23
2023-03-03T02:23:36.855Z,-1.61
2023-03-03T02:23:59.691Z,-1.61
2023-03-03T02:24:31.547Z,-3.77
2023-03-03T02:25:04.666Z,-4.35
2023-03-03T02:25:35.210Z,-1.61
2023-03-03T02:26:07.960Z,-1.72
2023-03-03T02:26:39.106Z,-1.72
2023-03-03T02:27:11.331Z,-1.72
2023-03-03T02:27:36.826Z,-1.72
2023-03-03T02:27:59.408Z,-1.72
2023-03-03T02:28:31.353Z,-1.72
2023-03-03T02:29:03.159Z,-1.72
2023-03-03T02:29:35.226Z,-1.72
2023-03-03T02:30:07.061Z,-1.72
2023-03-03T02:30:38.864Z,-1.72
2023-03-03T02:31:11.001Z,-4.17
2023-03-03T02:31:36.222Z,-1.72
2023-03-03T02:31:58.487Z,-1.72
2023-03-03T02:32:30.391Z,-1.72
2023-03-03T02:33:01.881Z,-1.72
2023-03-03T02:33:34.480Z,-1.72
2023-03-03T02:34:07.044Z,-4.59
2023-03-03T02:34:38.442Z,-4.36
2023-03-03T02:35:11.290Z,-3.90
2023-03-03T02:35:35.924Z,-4.17
2023-03-03T02:35:58.997Z,-3.75
2023-03-03T02:36:30.280Z,-1.72
2023-03-03T02:37:02.356Z,-1.72
2023-03-03T02:37:35.575Z,-1.72
2023-03-03T02:38:06.696Z,-1.72
2023-03-03T02:38:39.300Z,-1.72
2023-03-03T02:39:09.868Z,-1.72
2023-03-03T02:39:35.551Z,-1.72
2023-03-03T02:39:58.497Z,-1.72
2023-03-03T02:40:30.952Z,-1.72
2023-03-03T02:41:01.944Z,-1.72
2023-03-03T02:41:34.480Z,-1.72
2023-03-03T02:42:06.874Z,-1.72
2023-03-03T02:42:38.009Z,-1.72
2023-03-03T02:43:10.676Z,-1.72
2023-03-03T02:43:35.708Z,-1.72
2023-03-03T02:43:59.741Z,-1.72
2023-03-03T02:44:30.445Z,-1.72
2023-03-03T02:45:03.407Z,-1.72
2023-03-03T02:45:34.484Z,-1.72
2023-03-03T02:46:06.910Z,-3.75
2023-03-03T02:46:35.917Z,-1.72
2023-03-03T02:46:54.075Z,-1.72
2023-03-03T02:47:26.830Z,-1.72
2023-03-03T02:47:58.675Z,-1.72
2023-03-03T02:48:31.104Z,-3.90
2023-03-03T02:49:05.977Z,-1.72
2023-03-03T02:49:36.445Z,-1.72
2023-03-03T02:50:08.330Z,-1.77
2023-03-03T02:50:39.272Z,-1.77
2023-03-03T02:51:11.239Z,-1.77
2023-03-03T02:51:37.131Z,-1.72
2023-03-03T02:51:59.602Z,-3.75
2023-03-03T02:52:31.746Z,-1.72
2023-03-03T02:53:03.646Z,-1.77
2023-03-03T02:53:35.348Z,-1.77
2023-03-03T02:54:07.574Z,-1.77
2023-03-03T02:54:39.218Z,-1.77
2023-03-03T02:55:12.529Z,-1.77
2023-03-03T02:55:36.650Z,-1.77
2023-03-03T02:55:59.716Z,-1.77
2023-03-03T02:56:31.699Z,-1.77
2023-03-03T02:57:03.797Z,-1.77
2023-03-03T02:57:35.926Z,-1.77
2023-03-03T02:58:08.129Z,-1.77
2023-03-03T02:58:39.271Z,-1.77
2023-03-03T02:59:11.191Z,-1.77
2023-03-03T02:59:36.925Z,-1.77
2023-03-03T02:59:59.421Z,-1.77
2023-03-03T03:00:32.422Z,-1.77
2023-03-03T03:01:04.348Z,-4.54
2023-03-03T03:01:36.019Z,-4.23
2023-03-03T03:02:07.483Z,-1.72
2023-03-03T03:02:39.275Z,-1.72
2023-03-03T03:03:11.062Z,-1.72
2023-03-03T03:03:36.560Z,-1.72
2023-03-03T03:03:59.620Z,-4.17
2023-03-03T03:04:32.060Z,-4.48
2023-03-03T03:05:04.934Z,-3.90
2023-03-03T03:05:35.870Z,-1.72
2023-03-03T03:06:07.501Z,-3.81
2023-03-03T03:06:39.160Z,-4.09
2023-03-03T03:07:11.268Z,-4.54
2023-03-03T03:07:36.589Z,-5.03
2023-03-03T03:07:59.493Z,-4.65
2023-03-03T03:08:31.519Z,-4.42
2023-03-03T03:09:03.141Z,-1.77
2023-03-03T03:09:35.281Z,-1.77
2023-03-03T03:10:07.964Z,-1.77
2023-03-03T03:10:39.208Z,-1.77
2023-03-03T03:11:11.224Z,-4.42
2023-03-03T03:11:36.685Z,-4.65
2023-03-03T03:11:59.508Z,-4.35
2023-03-03T03:12:31.593Z,-4.22
2023-03-03T03:13:03.250Z,-4.35
2023-03-03T03:13:36.092Z,-1.88
2023-03-03T03:14:07.449Z,-1.88
2023-03-03T03:14:39.214Z,-1.88
2023-03-03T03:15:12.087Z,-1.88
2023-03-03T03:15:37.060Z,-4.55
2023-03-03T03:16:00.179Z,-1.88
2023-03-03T03:16:31.805Z,-4.08
2023-03-03T03:17:03.313Z,-1.88
2023-03-03T03:17:35.412Z,-4.35
2023-03-03T03:18:07.506Z,-4.35
2023-03-03T03:18:37.328Z,-4.22
2023-03-03T03:18:55.279Z,-1.88
2023-03-03T03:19:27.571Z,-1.88
2023-03-03T03:19:59.538Z,-3.94
2023-03-03T03:20:31.961Z,-1.88
2023-03-03T03:21:03.250Z,-1.88
2023-03-03T03:21:35.303Z,-1.88
2023-03-03T03:22:07.465Z,-1.88
2023-03-03T03:22:39.542Z,-1.88
2023-03-03T03:23:11.115Z,-4.35
2023-03-03T03:23:36.677Z,-3.94
2023-03-03T03:23:59.366Z,-1.88
2023-03-03T03:24:31.613Z,-1.88
2023-03-03T03:25:04.932Z,-1.88
2023-03-03T03:25:35.432Z,-4.35
2023-03-03T03:26:07.478Z,-3.94
2023-03-03T03:26:36.688Z,-1.88
2023-03-03T03:26:55.446Z,-1.88
2023-03-03T03:27:27.797Z,-1.88
2023-03-03T03:27:59.572Z,-1.88
2023-03-03T03:28:31.681Z,-1.88
2023-03-03T03:29:03.235Z,-1.88
2023-03-03T03:29:35.342Z,-1.88
2023-03-03T03:30:08.374Z,-4.08
2023-03-03T03:30:39.368Z,-4.81
2023-03-03T03:31:11.403Z,-2.00
2023-03-03T03:31:36.672Z,-2.00
2023-03-03T03:31:59.367Z,-2.00
2023-03-03T03:32:31.578Z,-2.00
2023-03-03T03:33:03.359Z,-2.00
2023-03-03T03:33:35.327Z,-2.00
2023-03-03T03:34:07.504Z,-2.00
2023-03-03T03:34:36.572Z,-2.00
2023-03-03T03:34:55.298Z,-2.00
2023-03-03T03:35:28.100Z,-2.00
2023-03-03T03:35:59.378Z,-4.07
2023-03-03T03:36:31.559Z,-4.81
2023-03-03T03:37:03.302Z,-5.14
2023-03-03T03:37:35.311Z,-4.81
2023-03-03T03:38:07.470Z,-4.49
2023-03-03T03:38:39.211Z,-2.00
2023-03-03T03:39:11.204Z,-5.30
2023-03-03T03:39:37.125Z,-4.92
2023-03-03T03:39:59.344Z,-2.00
2023-03-03T03:40:31.810Z,-4.07
2023-03-03T03:41:03.232Z,-2.00
2023-03-03T03:41:35.410Z,-4.49
2023-03-03T03:42:07.559Z,-4.20
2023-03-03T03:42:39.281Z,-2.11
2023-03-03T03:43:11.389Z,-4.20
2023-03-03T03:43:36.562Z,-4.20
2023-03-03T03:43:59.503Z,-2.11
2023-03-03T03:44:31.616Z,-5.27
2023-03-03T03:45:05.431Z,-2.11
2023-03-03T03:45:35.573Z,-4.20
2023-03-03T03:46:07.642Z,-4.61
2023-03-03T03:46:39.619Z,-5.06
2023-03-03T03:47:12.952Z,-4.75
2023-03-03T03:47:36.731Z,-5.76
2023-03-03T03:47:59.538Z,-2.22
2023-03-03T03:48:31.466Z,-5.06
2023-03-03T03:49:03.231Z,-5.76
2023-03-03T03:49:35.325Z,-5.06
2023-03-03T03:50:07.946Z,-5.40
2023-03-03T03:50:40.414Z,-5.06
2023-03-03T03:51:11.198Z,-5.56
2023-03-03T03:51:36.607Z,-5.56
2023-03-03T03:51:59.395Z,-5.18
2023-03-03T03:52:31.468Z,-5.29
2023-03-03T03:53:03.372Z,-4.61
2023-03-03T03:53:35.550Z,-5.35
2023-03-03T03:54:07.457Z,-6.14
2023-03-03T03:54:39.249Z,-5.35
2023-03-03T03:55:11.635Z,-5.12
2023-03-03T03:55:36.642Z,-5.92
2023-03-03T03:55:59.718Z,-4.53
2023-03-03T03:56:31.590Z,-2.27
2023-03-03T03:57:03.340Z,-2.27
2023-03-03T03:57:35.785Z,-2.27
2023-03-03T03:58:07.520Z,-4.67
2023-03-03T03:58:39.234Z,-2.27
2023-03-03T03:59:11.229Z,-4.80
2023-03-03T03:59:36.758Z,-4.38
2023-03-03T03:59:59.728Z,-2.22
2023-03-03T04:00:32.371Z,-2.22
2023-03-03T04:01:04.457Z,-2.27
2023-03-03T04:01:35.329Z,-2.22
2023-03-03T04:02:07.613Z,-2.22
2023-03-03T04:02:36.703Z,-2.27
2023-03-03T04:02:55.626Z,-2.27
2023-03-03T04:03:27.858Z,-2.27
2023-03-03T04:03:59.549Z,-2.27
2023-03-03T04:04:31.614Z,-2.27
2023-03-03T04:05:04.820Z,-2.27
2023-03-03T04:05:35.357Z,-2.27
2023-03-03T04:06:07.531Z,-4.80
2023-03-03T04:06:36.986Z,-4.67
2023-03-03T04:06:55.334Z,-2.27
2023-03-03T04:07:27.645Z,-2.27
2023-03-03T04:08:00.176Z,-2.27
2023-03-03T04:08:31.483Z,-2.27
2023-03-03T04:09:03.409Z,-2.27
2023-03-03T04:09:35.288Z,-2.27
2023-03-03T04:10:07.917Z,-2.27
2023-03-03T04:10:36.711Z,-2.27
2023-03-03T04:10:55.690Z,-2.27
2023-03-03T04:11:27.647Z,-2.27
2023-03-03T04:11:59.548Z,-2.27
2023-03-03T04:12:31.644Z,-2.27
2023-03-03T04:13:03.404Z,-2.27
2023-03-03T04:13:35.564Z,-2.27
2023-03-03T04:14:07.543Z,-2.27
2023-03-03T04:14:39.275Z,-2.27
2023-03-03T04:15:12.336Z,-2.27
2023-03-03T04:15:37.080Z,-2.27
2023-03-03T04:15:59.853Z,-2.27
2023-03-03T04:16:31.577Z,-4.38
2023-03-03T04:17:03.240Z,-2.27
2023-03-03T04:17:35.462Z,-2.27
2023-03-03T04:18:07.561Z,-2.27
2023-03-03T04:18:39.419Z,-2.27
2023-03-03T04:19:11.196Z,-2.27
2023-03-03T04:19:36.610Z,-2.27
2023-03-03T04:19:59.751Z,-2.27
2023-03-03T04:20:31.957Z,-2.27
2023-03-03T04:21:03.418Z,-2.27
2023-03-03T04:21:35.910Z,-2.27
2023-03-03T04:22:07.936Z,-2.27
2023-03-03T04:22:36.828Z,-2.27
2023-03-03T04:22:55.300Z,-4.67
2023-03-03T04:23:27.689Z,-4.53
2023-03-03T04:23:59.571Z,-2.27
2023-03-03T04:24:31.604Z,-4.33
2023-03-03T04:25:05.056Z,-4.33
2023-03-03T04:25:35.403Z,-4.47
2023-03-03T04:26:07.506Z,-2.22
2023-03-03T04:26:36.585Z,-2.22
2023-03-03T04:26:55.355Z,-2.22
2023-03-03T04:27:27.646Z,-2.22
2023-03-03T04:27:59.521Z,-2.22
2023-03-03T04:28:31.581Z,-4.33
2023-03-03T04:29:03.261Z,-4.75
2023-03-03T04:29:35.519Z,-2.22
2023-03-03T04:30:08.448Z,-2.22
2023-03-03T04:30:36.693Z,-2.27
2023-03-03T04:30:55.649Z,-2.27
2023-03-03T04:31:27.896Z,-4.80
2023-03-03T04:31:59.526Z,-5.62
2023-03-03T04:32:31.606Z,-4.38
2023-03-03T04:33:03.339Z,-4.38
2023-03-03T04:33:35.387Z,-4.38
2023-03-03T04:34:07.479Z,-4.53
2023-03-03T04:34:36.783Z,-2.27
2023-03-03T04:35:05.656Z,-4.67
2023-03-03T04:35:28.120Z,-2.27
2023-03-03T04:35:59.548Z,-4.38
2023-03-03T04:36:31.558Z,-2.27
2023-03-03T04:37:03.323Z,-2.27
2023-03-03T04:37:35.428Z,-4.67
2023-03-03T04:38:07.582Z,-4.67
2023-03-03T04:38:36.624Z,-4.38
2023-03-03T04:38:55.334Z,-2.27
2023-03-03T04:39:27.747Z,-2.27
2023-03-03T04:39:59.432Z,-2.27
2023-03-03T04:40:31.941Z,-2.27
2023-03-03T04:41:03.300Z,-4.38
2023-03-03T04:41:35.345Z,-2.27
2023-03-03T04:42:07.538Z,-2.27
2023-03-03T04:42:37.088Z,-4.53
2023-03-03T04:42:55.295Z,-2.27
2023-03-03T04:43:27.718Z,-2.27
2023-03-03T04:43:59.484Z,-4.38
2023-03-03T04:44:31.638Z,-2.27
2023-03-03T04:45:05.602Z,-2.27
2023-03-03T04:45:35.406Z,-2.27
2023-03-03T04:46:07.682Z,-2.27
2023-03-03T04:46:36.853Z,-2.27
2023-03-03T04:46:55.470Z,-2.27
2023-03-03T04:47:27.708Z,-2.27
2023-03-03T04:47:59.734Z,-2.27
2023-03-03T04:48:31.620Z,-2.27
2023-03-03T04:49:03.283Z,-2.27
2023-03-03T04:49:35.655Z,-2.27
2023-03-03T04:50:07.977Z,-2.27
2023-03-03T04:50:36.583Z,-2.27
2023-03-03T04:50:55.694Z,-2.27
2023-03-03T04:51:27.756Z,-2.27
2023-03-03T04:51:59.547Z,-2.27
2023-03-03T04:52:31.724Z,-2.27
2023-03-03T04:53:03.279Z,-2.27
2023-03-03T04:53:35.364Z,-2.27
2023-03-03T04:54:07.559Z,-2.27
2023-03-03T04:54:36.632Z,-2.27
2023-03-03T04:54:55.288Z,-2.27
2023-03-03T04:55:28.033Z,-2.27
2023-03-03T04:55:59.706Z,-2.27
2023-03-03T04:56:31.645Z,-2.27
2023-03-03T04:57:03.335Z,-4.80
2023-03-03T04:57:35.702Z,-6.08
2023-03-03T04:58:07.568Z,-5.29
2023-03-03T04:58:37.056Z,-5.86
2023-03-03T04:58:55.315Z,-5.29
2023-03-03T04:59:27.672Z,-6.05
2023-03-03T05:00:01.446Z,-5.24
2023-03-03T05:00:31.734Z,-5.35
2023-03-03T05:01:04.379Z,-2.27
2023-03-03T05:01:35.462Z,-2.27
2023-03-03T05:02:07.694Z,-5.12
2023-03-03T05:02:36.587Z,-4.53
2023-03-03T05:02:55.465Z,-2.27
2023-03-03T05:03:27.801Z,-4.67
2023-03-03T05:03:59.500Z,-4.80
2023-03-03T05:04:31.722Z,-2.27
2023-03-03T05:05:05.001Z,-5.12
2023-03-03T05:05:35.334Z,-4.38
2023-03-03T05:06:07.646Z,-4.67
2023-03-03T05:06:36.663Z,-2.27
2023-03-03T05:06:55.332Z,-5.12
2023-03-03T05:07:28.084Z,-4.80
2023-03-03T05:07:59.546Z,-5.24
2023-03-03T05:08:31.511Z,-2.27
2023-03-03T05:09:03.325Z,-2.27
2023-03-03T05:09:35.550Z,-5.35
2023-03-03T05:10:08.135Z,-4.38
2023-03-03T05:10:36.617Z,-4.38
2023-03-03T05:10:55.865Z,-2.27
2023-03-03T05:11:27.624Z,-2.27
2023-03-03T05:11:59.456Z,-2.27
2023-03-03T05:12:32.090Z,-2.27
2023-03-03T05:13:03.306Z,-2.27
2023-03-03T05:13:35.516Z,-4.38
2023-03-03T05:14:07.567Z,-2.27
2023-03-03T05:14:36.609Z,-2.27
2023-03-03T05:14:55.333Z,-2.27
2023-03-03T05:15:28.448Z,-4.80
2023-03-03T05:15:59.572Z,-4.75
2023-03-03T05:16:31.711Z,-4.33
2023-03-03T05:17:03.306Z,-2.22
2023-03-03T05:17:35.534Z,-2.22
2023-03-03T05:18:07.561Z,-2.22
2023-03-03T05:18:36.895Z,-4.33
2023-03-03T05:18:55.337Z,-2.22
2023-03-03T05:19:27.848Z,-2.22
2023-03-03T05:19:59.450Z,-2.22
2023-03-03T05:20:32.078Z,-2.22
2023-03-03T05:21:03.312Z,-2.22
2023-03-03T05:21:37.784Z,-2.22
2023-03-03T05:22:07.638Z,-2.22
2023-03-03T05:22:37.038Z,-2.22
2023-03-03T05:22:55.352Z,-5.18
2023-03-03T05:23:27.702Z,-4.47
2023-03-03T05:23:59.536Z,-2.22
2023-03-03T05:24:31.725Z,-2.11
2023-03-03T05:25:04.872Z,-2.11
2023-03-03T05:25:35.457Z,-4.62
2023-03-03T05:26:07.616Z,-2.11
2023-03-03T05:26:36.737Z,-2.11
2023-03-03T05:26:55.364Z,-4.20
2023-03-03T05:27:27.714Z,-5.63
2023-03-03T05:27:59.624Z,-6.32
2023-03-03T05:28:31.578Z,-6.04
2023-03-03T05:29:03.546Z,-6.40
2023-03-03T05:29:35.504Z,-6.04
2023-03-03T05:30:08.619Z,-5.76
2023-03-03T05:30:36.679Z,-5.29
2023-03-03T05:30:55.894Z,-5.18
2023-03-03T05:31:27.718Z,-5.86
2023-03-03T05:31:59.655Z,-5.06
2023-03-03T05:32:31.773Z,-2.22
2023-03-03T05:33:03.369Z,-6.08
2023-03-03T05:33:35.683Z,-5.62
2023-03-03T05:34:07.665Z,-6.44
2023-03-03T05:34:36.703Z,-6.67
2023-03-03T05:34:55.573Z,-6.14
2023-03-03T05:35:28.652Z,-5.46
2023-03-03T05:35:59.574Z,-5.24
2023-03-03T05:36:31.744Z,-6.78
2023-03-03T05:37:03.429Z,-6.78
2023-03-03T05:37:35.549Z,-6.52
2023-03-03T05:38:07.502Z,-6.52
2023-03-03T05:38:36.660Z,-5.82
2023-03-03T05:38:55.484Z,-5.35
2023-03-03T05:39:27.712Z,-4.38
2023-03-03T05:39:59.609Z,-6.05
2023-03-03T05:40:32.071Z,-5.62
2023-03-03T05:41:03.482Z,-6.14
2023-03-03T05:41:36.114Z,-5.62
2023-03-03T05:42:07.614Z,-5.72
2023-03-03T05:42:36.737Z,-5.72
2023-03-03T05:42:55.558Z,-5.72
2023-03-03T05:43:27.684Z,-5.62
2023-03-03T05:43:59.490Z,-2.38
2023-03-03T05:44:31.774Z,-5.35
2023-03-03T05:45:05.498Z,-5.00
2023-03-03T05:45:36.236Z,-5.25
2023-03-03T05:46:07.561Z,-2.38
2023-03-03T05:46:36.907Z,-6.05
2023-03-03T05:46:55.469Z,-6.28
2023-03-03T05:47:27.642Z,-6.73
2023-03-03T05:47:59.654Z,-5.37
2023-03-03T05:48:31.778Z,-5.25
2023-03-03T05:49:03.784Z,-4.93
2023-03-03T05:49:35.346Z,-6.65
2023-03-03T05:50:08.034Z,-5.75
2023-03-03T05:50:36.660Z,-6.45
2023-03-03T05:50:55.802Z,-6.18
2023-03-03T05:51:27.649Z,-5.75
2023-03-03T05:52:01.042Z,-4.66
2023-03-03T05:52:31.813Z,-5.13
2023-03-03T05:53:03.698Z,-5.25
2023-03-03T05:53:35.539Z,-4.66
2023-03-03T05:54:07.616Z,-4.51
2023-03-03T05:54:36.873Z,-4.66
2023-03-03T05:54:55.518Z,-4.51
2023-03-03T05:55:28.165Z,-2.38
2023-03-03T05:55:59.651Z,-4.51
2023-03-03T05:56:31.863Z,-4.51
2023-03-03T05:57:03.378Z,-5.46
2023-03-03T05:57:35.910Z,-5.00
2023-03-03T05:58:07.642Z,-5.12
2023-03-03T05:58:36.730Z,-5.13
2023-03-03T05:58:55.781Z,-4.51
2023-03-03T05:59:27.679Z,-4.80
2023-03-03T05:59:59.627Z,-5.25
2023-03-03T06:00:32.562Z,-5.95
2023-03-03T06:01:04.620Z,-2.38
2023-03-03T06:01:35.649Z,-2.38
2023-03-03T06:02:07.549Z,-2.38
2023-03-03T06:02:36.606Z,-2.38
2023-03-03T06:02:55.442Z,-2.38
2023-03-03T06:03:28.005Z,-4.51
2023-03-03T06:03:59.500Z,-4.51
2023-03-03T06:04:31.817Z,-2.38
2023-03-03T06:05:04.886Z,-2.38
2023-03-03T06:05:35.566Z,-2.27
2023-03-03T06:06:07.547Z,-2.27
2023-03-03T06:06:36.836Z,-2.27
2023-03-03T06:06:55.523Z,-2.27
2023-03-03T06:07:27.992Z,-4.38
2023-03-03T06:08:00.250Z,-4.38
2023-03-03T06:08:31.879Z,-2.27
2023-03-03T06:09:03.639Z,-2.27
2023-03-03T06:09:36.362Z,-2.27
2023-03-03T06:10:08.350Z,-2.27
2023-03-03T06:10:36.840Z,-5.12
2023-03-03T06:10:55.971Z,-5.82
2023-03-03T06:11:27.958Z,-4.38
2023-03-03T06:11:59.786Z,-2.38
2023-03-03T06:12:31.839Z,-2.38
2023-03-03T06:13:03.685Z,-4.66
2023-03-03T06:13:35.743Z,-4.66
2023-03-03T06:14:07.693Z,-4.51
2023-03-03T06:14:36.752Z,-2.38
2023-03-03T06:14:55.596Z,-2.38
2023-03-03T06:15:28.854Z,-2.38
2023-03-03T06:15:59.799Z,-6.05
2023-03-03T06:16:32.027Z,-5.13
2023-03-03T06:17:04.183Z,-5.48
2023-03-03T06:17:35.800Z,-5.48
2023-03-03T06:18:07.860Z,-4.80
2023-03-03T06:18:37.033Z,-2.38
2023-03-03T06:18:55.624Z,-5.37
2023-03-03T06:19:28.418Z,-4.79
2023-03-03T06:19:59.795Z,-4.65
2023-03-03T06:20:32.500Z,-2.50
2023-03-03T06:21:03.748Z,-4.79
2023-03-03T06:21:35.831Z,-2.50
2023-03-03T06:22:08.288Z,-5.07
2023-03-03T06:22:37.033Z,-4.65
2023-03-03T06:22:55.593Z,-2.50
2023-03-03T06:23:27.980Z,-2.50
2023-03-03T06:23:59.823Z,-4.93
2023-03-03T06:24:31.961Z,-4.79
2023-03-03T06:25:05.100Z,-5.62
2023-03-03T06:25:35.910Z,-2.50
2023-03-03T06:26:07.844Z,-2.50
2023-03-03T06:26:37.047Z,-2.50
2023-03-03T06:26:55.570Z,-2.50
2023-03-03T06:27:27.981Z,-2.50